createdAt,value
2022-08-28T00:00:43.160Z,21.46
2022-08-28T00:03:15.404Z,21.47
2022-08-28T00:05:45.972Z,21.46
2022-08-28T00:08:15.737Z,21.45
2022-08-28T00:10:44.874Z,21.44
2022-08-28T00:13:19.223Z,21.43
2022-08-28T00:15:50.670Z,21.43
2022-08-28T00:18:19.802Z,21.44
2022-08-28T00:20:49.368Z,21.44
2022-08-28T00:23:18.371Z,21.44
2022-08-28T00:25:46.246Z,21.44
2022-08-28T00:28:15.361Z,21.44
2022-08-28T00:30:58.580Z,21.43
2022-08-28T00:33:33.264Z,21.43
2022-08-28T00:36:02.601Z,21.40
2022-08-28T00:38:32.279Z,21.36
2022-08-28T00:41:03.827Z,21.33
2022-08-28T00:43:35.077Z,21.30
2022-08-28T00:46:07.850Z,21.28
2022-08-28T00:48:39.857Z,21.24
2022-08-28T00:51:27.727Z,21.21
2022-08-28T00:54:01.374Z,21.17
2022-08-28T00:56:32.475Z,21.12
2022-08-28T00:59:08.011Z,21.08
2022-08-28T01:01:36.596Z,21.04
2022-08-28T01:04:06.457Z,21.01
2022-08-28T01:06:36.173Z,20.99
2022-08-28T01:09:06.579Z,20.98
2022-08-28T01:11:34.789Z,20.96
2022-08-28T01:14:05.245Z,20.93
2022-08-28T01:16:34.212Z,20.90
2022-08-28T01:19:09.810Z,20.89
2022-08-28T01:22:08.087Z,20.89
2022-08-28T01:24:39.484Z,20.88
2022-08-28T01:27:07.417Z,20.89
2022-08-28T01:29:35.602Z,20.89
2022-08-28T01:32:05.723Z,20.89
2022-08-28T01:34:36.365Z,20.87
2022-08-28T01:37:04.490Z,20.86
2022-08-28T01:39:32.773Z,20.85
2022-08-28T01:42:02.649Z,20.85
2022-08-28T01:44:30.610Z,20.83
2022-08-28T01:46:58.790Z,20.83
2022-08-28T01:49:29.540Z,20.84
2022-08-28T01:51:58.289Z,20.82
2022-08-28T01:54:27.095Z,20.80
2022-08-28T01:56:55.375Z,20.79
2022-08-28T01:59:23.438Z,20.78
2022-08-28T02:01:51.282Z,20.78
2022-08-28T02:04:19.481Z,20.76
2022-08-28T02:06:50.982Z,20.75
2022-08-28T02:09:19.392Z,20.75
2022-08-28T02:11:47.485Z,20.76
2022-08-28T02:14:17.058Z,20.77
2022-08-28T02:16:44.862Z,20.78
2022-08-28T02:19:12.744Z,20.79
2022-08-28T02:21:40.619Z,20.78
2022-08-28T02:24:09.123Z,20.77
2022-08-28T02:26:36.971Z,20.78
2022-08-28T02:29:05.967Z,20.79
2022-08-28T02:31:33.832Z,20.79
2022-08-28T02:34:01.698Z,20.81
2022-08-28T02:36:45.290Z,20.81
2022-08-28T02:39:13.169Z,20.83
2022-08-28T02:41:41.511Z,20.83
2022-08-28T02:44:09.659Z,20.86
2022-08-28T02:46:37.516Z,20.87
2022-08-28T02:49:05.426Z,20.87
2022-08-28T02:51:33.660Z,20.88
2022-08-28T02:54:02.367Z,20.89
2022-08-28T02:56:31.390Z,20.89
2022-08-28T02:58:59.261Z,20.91
2022-08-28T03:01:27.201Z,20.91
2022-08-28T03:03:55.037Z,20.91
2022-08-28T03:06:23.209Z,20.91
2022-08-28T03:08:51.067Z,20.90
2022-08-28T03:11:19.257Z,20.90
2022-08-28T03:13:47.162Z,20.90
2022-08-28T03:16:15.097Z,20.90
2022-08-28T03:18:42.998Z,20.91
2022-08-28T03:21:11.990Z,20.92
2022-08-28T03:23:40.138Z,20.91
2022-08-28T03:26:16.642Z,20.90
2022-08-28T03:28:48.223Z,20.88
2022-08-28T03:31:19.870Z,20.87
2022-08-28T03:33:48.435Z,20.87
2022-08-28T03:36:21.657Z,20.88
2022-08-28T03:38:52.119Z,20.88
2022-08-28T03:41:22.111Z,20.88
2022-08-28T03:43:50.893Z,20.85
2022-08-28T03:46:24.007Z,20.82
2022-08-28T03:48:53.834Z,20.81
2022-08-28T03:51:29.646Z,20.81
2022-08-28T03:53:59.614Z,20.83
2022-08-28T03:56:29.714Z,20.85
2022-08-28T03:59:00.345Z,20.86
2022-08-28T04:01:29.703Z,20.89
2022-08-28T04:03:57.666Z,20.91
2022-08-28T04:06:25.915Z,20.91
2022-08-28T04:08:54.164Z,20.91
2022-08-28T04:11:22.967Z,20.91
2022-08-28T04:13:50.833Z,20.90
2022-08-28T04:16:19.623Z,20.86
2022-08-28T04:18:49.395Z,20.87
2022-08-28T04:21:21.196Z,20.87
2022-08-28T04:23:49.919Z,20.86
2022-08-28T04:26:21.073Z,20.88
2022-08-28T04:28:50.097Z,20.89
2022-08-28T04:31:31.951Z,20.91
2022-08-28T04:34:02.611Z,20.92
2022-08-28T04:36:30.994Z,20.92
2022-08-28T04:38:58.944Z,20.93
2022-08-28T04:41:27.845Z,20.97
2022-08-28T04:43:57.640Z,20.99
2022-08-28T04:46:26.783Z,21.03
2022-08-28T04:48:59.823Z,21.05
2022-08-28T04:51:31.479Z,21.09
2022-08-28T04:53:59.689Z,21.11
2022-08-28T04:56:27.561Z,21.15
2022-08-28T04:58:55.528Z,21.18
2022-08-28T05:01:24.850Z,21.22
2022-08-28T05:04:00.939Z,21.26
2022-08-28T05:06:30.177Z,21.30
2022-08-28T05:09:01.479Z,21.33
2022-08-28T05:11:34.395Z,21.35
2022-08-28T05:14:07.228Z,21.39
2022-08-28T05:16:53.230Z,21.41
2022-08-28T05:19:21.922Z,21.45
2022-08-28T05:21:51.397Z,21.48
2022-08-28T05:24:19.840Z,21.51
2022-08-28T05:26:48.771Z,21.55
2022-08-28T05:29:17.605Z,21.57
2022-08-28T05:31:46.447Z,21.58
2022-08-28T05:34:15.570Z,21.61
2022-08-28T05:36:44.545Z,21.64
2022-08-28T05:39:13.487Z,21.66
2022-08-28T05:41:43.449Z,21.69
2022-08-28T05:44:13.667Z,21.71
2022-08-28T05:46:45.055Z,21.73
2022-08-28T05:49:13.726Z,21.76
2022-08-28T05:51:43.230Z,21.79
2022-08-28T05:54:15.010Z,21.81
2022-08-28T05:56:45.527Z,21.83
2022-08-28T05:59:14.319Z,21.85
2022-08-28T06:01:46.725Z,21.98
2022-08-28T06:04:27.543Z,22.09
2022-08-28T06:06:56.319Z,22.22
2022-08-28T06:09:29.672Z,22.31
2022-08-28T06:12:01.918Z,22.41
2022-08-28T06:14:31.787Z,22.50
2022-08-28T06:17:01.777Z,22.57
2022-08-28T06:19:32.470Z,22.62
2022-08-28T06:22:07.062Z,22.70
2022-08-28T06:24:35.817Z,22.78
2022-08-28T06:27:03.769Z,22.89
2022-08-28T06:29:31.745Z,23.02
2022-08-28T06:32:01.952Z,23.19
2022-08-28T06:34:30.132Z,23.32
2022-08-28T06:36:58.150Z,23.43
2022-08-28T06:39:26.207Z,23.55
2022-08-28T06:41:54.146Z,23.62
2022-08-28T06:44:23.036Z,23.73
2022-08-28T06:46:54.204Z,23.85
2022-08-28T06:49:22.764Z,23.98
2022-08-28T06:51:50.888Z,24.06
2022-08-28T06:54:22.648Z,24.11
2022-08-28T06:56:52.407Z,24.21
2022-08-28T06:59:21.913Z,24.26
2022-08-28T07:01:49.874Z,24.33
2022-08-28T07:04:17.817Z,24.41
2022-08-28T07:06:47.081Z,24.52
2022-08-28T07:09:15.542Z,24.64
2022-08-28T07:11:49.124Z,24.73
2022-08-28T07:14:17.438Z,24.74
2022-08-28T07:16:45.349Z,24.78
2022-08-28T07:19:14.454Z,24.83
2022-08-28T07:21:45.091Z,24.86
2022-08-28T07:24:14.966Z,24.72
2022-08-28T07:26:45.077Z,24.56
2022-08-28T07:29:14.648Z,24.60
2022-08-28T07:31:47.147Z,24.57
2022-08-28T07:34:16.751Z,24.60
2022-08-28T07:36:44.954Z,24.58
2022-08-28T07:39:16.275Z,24.60
2022-08-28T07:41:45.169Z,24.52
2022-08-28T07:44:34.388Z,24.52
2022-08-28T07:47:05.952Z,24.60
2022-08-28T07:49:35.268Z,24.64
2022-08-28T07:52:07.001Z,24.74
2022-08-28T07:54:36.731Z,24.86
2022-08-28T07:57:05.576Z,24.98
2022-08-28T07:59:36.962Z,25.06
2022-08-28T08:02:07.002Z,25.16
2022-08-28T08:04:35.488Z,25.19
2022-08-28T08:07:05.142Z,25.21
2022-08-28T08:09:38.488Z,25.13
2022-08-28T08:12:07.928Z,24.91
2022-08-28T08:14:42.883Z,24.85
2022-08-28T08:17:11.557Z,24.92
2022-08-28T08:19:39.828Z,25.05
2022-08-28T08:22:07.693Z,24.94
2022-08-28T08:24:36.017Z,24.74
2022-08-28T08:27:04.255Z,24.61
2022-08-28T08:29:36.041Z,24.59
2022-08-28T08:32:10.485Z,24.55
2022-08-28T08:34:43.108Z,24.45
2022-08-28T08:37:13.478Z,24.49
2022-08-28T08:39:43.085Z,24.49
2022-08-28T08:42:27.941Z,24.50
2022-08-28T08:44:59.138Z,24.55
2022-08-28T08:47:34.533Z,24.51
2022-08-28T08:50:08.179Z,24.58
2022-08-28T08:52:52.730Z,24.65
2022-08-28T08:55:32.170Z,24.64
2022-08-28T08:58:09.490Z,24.55
2022-08-28T09:01:06.723Z,24.42
2022-08-28T09:03:55.369Z,24.34
2022-08-28T09:06:44.736Z,24.33
2022-08-28T09:09:30.559Z,24.31
2022-08-28T09:12:04.025Z,24.40
2022-08-28T09:14:49.938Z,24.54
2022-08-28T09:17:21.794Z,24.74
2022-08-28T09:19:49.776Z,24.90
2022-08-28T09:22:17.585Z,24.97
2022-08-28T09:24:45.501Z,24.97
2022-08-28T09:27:34.052Z,25.07
2022-08-28T09:30:12.461Z,25.22
2022-08-28T09:32:44.688Z,25.26
2022-08-28T09:35:23.759Z,25.37
2022-08-28T09:37:51.910Z,25.48
2022-08-28T09:40:22.328Z,25.51
2022-08-28T09:43:26.925Z,25.50
2022-08-28T09:46:15.759Z,25.55
2022-08-28T09:48:47.559Z,25.55
2022-08-28T09:51:21.636Z,25.44
2022-08-28T09:54:09.241Z,25.26
2022-08-28T09:56:40.898Z,25.04
2022-08-28T09:59:14.427Z,24.83
2022-08-28T10:01:49.493Z,24.64
2022-08-28T10:04:50.470Z,24.52
2022-08-28T10:07:57.899Z,24.42
2022-08-28T10:10:43.436Z,24.26
2022-08-28T10:13:20.605Z,24.12
2022-08-28T10:15:51.617Z,24.09
2022-08-28T10:18:50.194Z,24.06
2022-08-28T10:21:26.833Z,24.04
2022-08-28T10:24:26.041Z,23.98
2022-08-28T10:27:04.682Z,23.79
2022-08-28T10:29:49.647Z,23.58
2022-08-28T10:32:42.488Z,23.45
2022-08-28T10:35:23.032Z,23.42
2022-08-28T10:38:17.426Z,23.43
2022-08-28T10:40:51.253Z,23.42
2022-08-28T10:43:48.088Z,23.44
2022-08-28T10:46:27.249Z,23.45
2022-08-28T10:49:04.371Z,23.47
2022-08-28T10:51:43.592Z,23.44
2022-08-28T10:54:23.785Z,23.39
2022-08-28T10:57:01.353Z,23.35
2022-08-28T10:59:32.556Z,23.28
2022-08-28T11:02:07.160Z,23.17
2022-08-28T11:04:40.969Z,23.09
2022-08-28T11:07:12.810Z,22.96
2022-08-28T11:09:49.147Z,22.88
2022-08-28T11:12:20.045Z,22.86
2022-08-28T11:14:51.184Z,22.82
2022-08-28T11:17:25.440Z,22.77
2022-08-28T11:19:58.824Z,22.67
2022-08-28T11:22:36.277Z,22.54
2022-08-28T11:25:26.709Z,22.56
2022-08-28T11:28:35.867Z,22.65
2022-08-28T11:31:29.143Z,22.89
2022-08-28T11:34:00.252Z,23.17
2022-08-28T11:36:37.670Z,23.41
2022-08-28T11:39:20.213Z,23.47
2022-08-28T11:42:35.310Z,23.47
2022-08-28T11:45:05.154Z,23.49
2022-08-28T11:47:38.128Z,23.42
2022-08-28T11:50:54.653Z,23.22
2022-08-28T11:53:52.330Z,23.14
2022-08-28T11:57:01.764Z,23.21
2022-08-28T12:00:08.990Z,23.15
2022-08-28T12:03:06.926Z,23.17
2022-08-28T12:05:55.199Z,23.05
2022-08-28T12:08:48.167Z,22.86
2022-08-28T12:11:41.163Z,22.69
2022-08-28T12:14:47.437Z,22.65
2022-08-28T12:17:31.429Z,22.65
2022-08-28T12:20:27.261Z,22.46
2022-08-28T12:22:59.892Z,22.34
2022-08-28T12:25:30.810Z,22.20
2022-08-28T12:28:26.223Z,22.10
2022-08-28T12:31:09.409Z,22.15
2022-08-28T12:34:04.036Z,22.28
2022-08-28T12:36:35.381Z,22.41
2022-08-28T12:39:03.323Z,22.48
2022-08-28T12:41:32.222Z,22.45
2022-08-28T12:44:02.005Z,22.35
2022-08-28T12:46:48.848Z,22.25
2022-08-28T12:49:32.203Z,22.14
2022-08-28T12:52:34.264Z,22.12
2022-08-28T12:55:02.589Z,22.12
2022-08-28T12:57:44.173Z,22.05
2022-08-28T13:00:20.801Z,22.04
2022-08-28T13:02:50.936Z,22.03
2022-08-28T13:05:32.444Z,22.04
2022-08-28T13:08:06.801Z,22.01
2022-08-28T13:10:40.589Z,21.88
2022-08-28T13:13:18.671Z,21.88
2022-08-28T13:15:54.521Z,21.94
2022-08-28T13:19:10.817Z,21.93
2022-08-28T13:22:00.475Z,21.84
2022-08-28T13:24:43.929Z,21.73
2022-08-28T13:27:23.709Z,21.61
2022-08-28T13:30:05.619Z,21.51
2022-08-28T13:32:37.046Z,21.48
2022-08-28T13:35:30.998Z,21.41
2022-08-28T13:38:00.725Z,21.26
2022-08-28T13:43:28.373Z,21.18
2022-08-28T13:45:56.564Z,21.11
2022-08-28T13:48:27.389Z,21.09
2022-08-28T13:51:07.517Z,20.98
2022-08-28T13:53:38.792Z,20.97
2022-08-28T13:56:10.082Z,20.96
2022-08-28T13:58:37.990Z,20.91
2022-08-28T14:01:05.944Z,20.86
2022-08-28T14:03:38.604Z,20.86
2022-08-28T14:06:17.210Z,20.85
2022-08-28T14:08:49.701Z,20.90
2022-08-28T14:11:20.580Z,20.88
2022-08-28T14:13:55.645Z,20.90
2022-08-28T14:16:27.034Z,20.95
2022-08-28T14:18:55.186Z,20.96
2022-08-28T14:21:26.754Z,20.85
2022-08-28T14:23:55.542Z,20.77
2022-08-28T14:26:27.026Z,20.75
2022-08-28T14:28:59.073Z,20.75
2022-08-28T14:31:28.544Z,20.82
2022-08-28T14:33:58.757Z,20.89
2022-08-28T14:36:30.027Z,20.97
2022-08-28T14:39:05.360Z,20.93
2022-08-28T14:41:35.641Z,20.97
2022-08-28T14:44:04.858Z,20.99
2022-08-28T14:46:36.134Z,20.97
2022-08-28T14:49:09.181Z,20.96
2022-08-28T14:51:41.405Z,20.94
2022-08-28T14:54:11.533Z,20.87
2022-08-28T14:56:41.692Z,20.73
2022-08-28T14:59:17.555Z,20.58
2022-08-28T15:01:52.483Z,20.52
2022-08-28T15:04:24.288Z,20.45
2022-08-28T15:06:58.575Z,20.30
2022-08-28T15:09:27.588Z,20.23
2022-08-28T15:11:55.389Z,20.22
2022-08-28T15:14:23.313Z,20.12
2022-08-28T15:16:53.620Z,20.05
2022-08-28T15:19:23.459Z,19.95
2022-08-28T15:21:54.871Z,19.86
2022-08-28T15:24:26.980Z,19.84
2022-08-28T15:26:55.431Z,19.80
2022-08-28T15:29:26.793Z,19.70
2022-08-28T15:31:56.987Z,19.62
2022-08-28T15:34:28.521Z,19.62
2022-08-28T15:36:58.732Z,19.63
2022-08-28T15:39:48.577Z,19.62
2022-08-28T15:42:19.535Z,19.58
2022-08-28T15:44:48.122Z,19.60
2022-08-28T15:47:16.700Z,19.59
2022-08-28T15:49:50.057Z,19.55
2022-08-28T15:52:20.798Z,19.48
2022-08-28T15:54:49.830Z,19.48
2022-08-28T15:57:20.390Z,19.49
2022-08-28T15:59:50.893Z,19.48
2022-08-28T16:02:22.499Z,19.46
2022-08-28T16:04:54.008Z,19.48
2022-08-28T16:07:25.446Z,19.53
2022-08-28T16:09:54.130Z,19.56
2022-08-28T16:12:22.702Z,19.57
2022-08-28T16:14:50.880Z,19.57
2022-08-28T16:17:19.176Z,19.55
2022-08-28T16:19:49.390Z,19.53
2022-08-28T16:22:20.462Z,19.61
2022-08-28T16:24:48.901Z,19.69
2022-08-28T16:27:18.778Z,19.76
2022-08-28T16:29:49.642Z,19.82
2022-08-28T16:32:21.573Z,19.86
2022-08-28T16:34:50.596Z,19.90
2022-08-28T16:37:20.907Z,19.93
2022-08-28T16:39:56.226Z,19.92
2022-08-28T16:42:30.968Z,19.91
2022-08-28T16:45:02.168Z,19.93
2022-08-28T16:47:33.352Z,19.96
2022-08-28T16:50:10.886Z,19.97
2022-08-28T16:52:40.056Z,19.95
2022-08-28T16:55:10.684Z,19.94
2022-08-28T16:57:42.849Z,19.94
2022-08-28T17:00:15.638Z,19.94
2022-08-28T17:02:46.863Z,19.91
2022-08-28T17:05:17.452Z,19.90
2022-08-28T17:07:47.347Z,19.90
2022-08-28T17:10:19.831Z,19.89
2022-08-28T17:12:48.257Z,19.85
2022-08-28T17:15:17.184Z,19.80
2022-08-28T17:17:47.063Z,19.79
2022-08-28T17:20:35.031Z,19.77
2022-08-28T17:23:03.564Z,19.68
2022-08-28T17:25:33.631Z,19.64
2022-08-28T17:28:01.493Z,19.63
2022-08-28T17:30:30.891Z,19.65
2022-08-28T17:33:01.964Z,19.64
2022-08-28T17:35:31.348Z,19.63
2022-08-28T17:38:13.388Z,19.63
2022-08-28T17:40:53.200Z,19.61
2022-08-28T17:43:30.182Z,19.59
2022-08-28T17:45:58.052Z,19.61
2022-08-28T17:48:29.367Z,19.61
2022-08-28T17:50:58.536Z,19.62
2022-08-28T17:53:29.836Z,19.63
2022-08-28T17:55:59.188Z,19.65
2022-08-28T17:58:31.672Z,19.64
2022-08-28T18:01:04.970Z,19.62
2022-08-28T18:03:36.700Z,19.62
2022-08-28T18:06:15.369Z,19.62
2022-08-28T18:08:44.831Z,19.62
2022-08-28T18:11:14.241Z,19.63
2022-08-28T18:13:42.633Z,19.63
2022-08-28T18:16:10.727Z,19.65
2022-08-28T18:18:44.692Z,19.66
2022-08-28T18:21:19.160Z,19.71
2022-08-28T18:23:48.332Z,19.83
2022-08-28T18:26:22.574Z,19.95
2022-08-28T18:29:16.754Z,20.06
2022-08-28T18:31:45.591Z,20.17
2022-08-28T18:34:18.283Z,20.22
2022-08-28T18:36:45.286Z,20.25
2022-08-28T18:39:29.345Z,20.28
2022-08-28T18:42:05.841Z,20.36
2022-08-28T18:44:59.689Z,20.36
2022-08-28T18:47:30.689Z,20.38
2022-08-28T18:50:01.041Z,20.36
2022-08-28T18:52:39.849Z,20.41
2022-08-28T18:55:14.327Z,20.46
2022-08-28T18:57:48.450Z,20.43
2022-08-28T19:00:19.730Z,20.39
2022-08-28T19:02:54.469Z,20.39
2022-08-28T19:05:29.439Z,20.41
2022-08-28T19:08:05.447Z,20.35
2022-08-28T19:10:35.166Z,20.35
2022-08-28T19:13:06.236Z,20.37
2022-08-28T19:15:39.994Z,20.37
2022-08-28T19:18:14.321Z,20.40
2022-08-28T19:20:48.578Z,20.42
2022-08-28T19:23:21.064Z,20.40
2022-08-28T19:25:49.293Z,20.36
2022-08-28T19:28:17.288Z,20.34
2022-08-28T19:30:51.859Z,20.29
2022-08-28T19:33:46.598Z,20.27
2022-08-28T19:36:20.993Z,20.22
2022-08-28T19:38:49.206Z,20.16
2022-08-28T19:41:23.068Z,20.12
2022-08-28T19:43:53.954Z,20.06
2022-08-28T19:46:27.934Z,19.97
2022-08-28T19:48:56.952Z,19.88
2022-08-28T19:51:25.360Z,19.80
2022-08-28T19:53:58.286Z,19.72
2022-08-28T19:56:33.312Z,19.65
2022-08-28T19:59:03.003Z,19.59
2022-08-28T20:01:35.626Z,19.51
2022-08-28T20:04:05.626Z,19.43
2022-08-28T20:06:40.863Z,19.33
2022-08-28T20:09:12.927Z,19.26
2022-08-28T20:11:47.046Z,19.19
2022-08-28T20:14:17.632Z,19.12
2022-08-28T20:16:51.002Z,19.04
2022-08-28T20:19:20.323Z,18.95
2022-08-28T20:21:50.049Z,18.87
2022-08-28T20:24:24.271Z,18.79
2022-08-28T20:26:53.349Z,18.70
2022-08-28T20:29:21.807Z,18.65
2022-08-28T20:31:49.921Z,18.59
2022-08-28T20:34:20.684Z,18.54
2022-08-28T20:36:49.138Z,18.48
2022-08-28T20:39:18.386Z,18.43
2022-08-28T20:41:49.502Z,18.37
2022-08-28T20:44:19.980Z,18.32
2022-08-28T20:46:51.391Z,18.27
2022-08-28T20:49:24.005Z,18.21
2022-08-28T20:52:01.011Z,18.17
2022-08-28T20:54:32.542Z,18.13
2022-08-28T20:57:07.926Z,18.10
2022-08-28T20:59:40.193Z,18.05
2022-08-28T21:02:16.729Z,18.01
2022-08-28T21:04:46.949Z,17.96
2022-08-28T21:07:17.289Z,17.92
2022-08-28T21:10:04.031Z,17.89
2022-08-28T21:12:41.029Z,17.84
2022-08-28T21:15:12.653Z,17.80
2022-08-28T21:17:41.729Z,17.76
2022-08-28T21:20:14.386Z,17.71
2022-08-28T21:22:43.637Z,17.68
2022-08-28T21:25:13.549Z,17.65
2022-08-28T21:27:43.488Z,17.61
2022-08-28T21:30:17.648Z,17.57
2022-08-28T21:32:50.098Z,17.53
2022-08-28T21:35:21.961Z,17.49
2022-08-28T21:37:51.236Z,17.45
2022-08-28T21:40:20.049Z,17.42
2022-08-28T21:42:50.922Z,17.39
2022-08-28T21:45:22.469Z,17.37
2022-08-28T21:47:50.332Z,17.33
2022-08-28T21:50:20.817Z,17.31
2022-08-28T21:52:48.649Z,17.29
2022-08-28T21:55:17.637Z,17.27
2022-08-28T21:57:48.542Z,17.23
2022-08-28T22:00:20.023Z,17.21
2022-08-28T22:02:48.727Z,17.18
2022-08-28T22:05:18.511Z,17.16
2022-08-28T22:07:46.784Z,17.14
2022-08-28T22:10:15.173Z,17.13
2022-08-28T22:12:45.777Z,17.10
2022-08-28T22:15:13.600Z,17.07
2022-08-28T22:17:41.760Z,17.06
2022-08-28T22:20:09.856Z,17.04
2022-08-28T22:22:57.121Z,17.01
2022-08-28T22:25:28.260Z,16.98
2022-08-28T22:27:56.790Z,16.94
2022-08-28T22:30:26.765Z,16.90
2022-08-28T22:32:54.913Z,16.87
2022-08-28T22:35:22.845Z,16.85
2022-08-28T22:37:50.675Z,16.82
2022-08-28T22:40:19.035Z,16.79
2022-08-28T22:42:47.747Z,16.78
2022-08-28T22:45:17.763Z,16.75
2022-08-28T22:47:45.533Z,16.73
2022-08-28T22:50:13.392Z,16.71
2022-08-28T22:52:43.415Z,16.69
2022-08-28T22:55:13.338Z,16.68
2022-08-28T22:57:42.404Z,16.66
2022-08-28T23:00:14.467Z,16.64
2022-08-28T23:02:44.877Z,16.63
2022-08-28T23:05:14.897Z,16.62
2022-08-28T23:07:44.222Z,16.63
2022-08-28T23:10:17.177Z,16.64
2022-08-28T23:12:45.451Z,16.65
2022-08-28T23:15:19.062Z,16.68
2022-08-28T23:17:47.543Z,16.70
2022-08-28T23:20:23.923Z,16.72
2022-08-28T23:22:58.100Z,16.75
2022-08-28T23:25:28.095Z,16.78
2022-08-28T23:28:01.477Z,16.81
2022-08-28T23:30:32.648Z,16.85
2022-08-28T23:33:01.462Z,16.88
2022-08-28T23:35:32.440Z,16.91
2022-08-28T23:38:00.853Z,16.95
2022-08-28T23:40:30.903Z,16.98
2022-08-28T23:42:59.717Z,17.01
2022-08-28T23:45:29.314Z,17.05
2022-08-28T23:47:58.095Z,17.08
2022-08-28T23:50:29.389Z,17.10
2022-08-28T23:52:57.264Z,17.13
2022-08-28T23:55:26.982Z,17.13
2022-08-28T23:57:55.802Z,17.14
